Time;durP1;ratioP1;P1;durP2;ratioP2;P2;SDS_P1;SDS_P2;PMS_P1;PMS_P2;Temp;Humidity;BMP_temperature;BMP_pressure;BME280_temperature;BME280_humidity;BME280_pressure;Samples;Min_cycle;Max_cycle;Signal;HPM_P1;HPM_P2
2022/04/18 00:00:19;;;;;;;0.80;0.80;;;;;;;5.67;62.15;96646.81;4882595;29;20293;-85
2022/04/18 00:02:46;;;;;;;0.80;0.80;;;;;;;5.66;63.30;96653.72;4875179;29;20240;-84
2022/04/18 00:05:13;;;;;;;0.87;0.87;;;;;;;5.45;64.14;96668.94;4875027;29;20706;-83
2022/04/18 00:07:40;;;;;;;0.80;0.80;;;;;;;5.25;64.67;96650.78;4876523;29;20187;-90
2022/04/18 00:10:09;;;;;;;0.90;0.90;;;;;;;5.17;65.24;96637.34;4882930;29;20192;-92
2022/04/18 00:12:36;;;;;;;1.07;0.90;;;;;;;5.27;64.86;96654.13;4889802;29;20229;-88
2022/04/18 00:15:04;;;;;;;0.97;0.97;;;;;;;5.40;64.87;96640.03;4874620;29;20196;-86
2022/04/18 00:17:33;;;;;;;0.83;0.80;;;;;;;5.41;65.08;96619.44;4877041;29;20203;-86
2022/04/18 00:20:00;;;;;;;0.80;0.77;;;;;;;5.38;63.84;96605.88;4876618;29;20611;-84
2022/04/18 00:22:29;;;;;;;0.80;0.80;;;;;;;5.75;64.64;96655.09;4874710;29;20287;-84
2022/04/18 00:24:56;;;;;;;0.90;0.90;;;;;;;5.90;64.06;96633.25;4875175;29;20677;-85
2022/04/18 00:27:24;;;;;;;0.83;0.83;;;;;;;5.89;64.57;96634.16;4877501;29;20224;-87
2022/04/18 00:29:52;;;;;;;1.00;0.90;;;;;;;5.74;65.14;96592.63;4888034;29;20206;-88
2022/04/18 00:32:20;;;;;;;1.10;1.00;;;;;;;5.93;65.15;96616.00;4875862;29;20202;-84
2022/04/18 00:34:48;;;;;;;0.80;0.80;;;;;;;6.03;65.08;96616.50;4876585;29;20288;-83
2022/04/18 00:37:17;;;;;;;1.30;0.90;;;;;;;5.84;63.91;96606.03;4875589;29;20198;-84
2022/04/18 00:39:45;;;;;;;3.60;1.00;;;;;;;5.51;64.39;96584.00;4878941;29;20222;-84
2022/04/18 00:42:13;;;;;;;1.53;1.40;;;;;;;5.84;63.49;96621.44;4862699;29;20775;-84
2022/04/18 00:44:40;;;;;;;2.00;1.40;;;;;;;5.90;63.41;96616.09;4878182;29;20312;-85
2022/04/18 00:47:07;;;;;;;1.23;1.13;;;;;;;6.00;63.34;96632.88;4893984;29;20197;-85
2022/04/18 00:49:38;;;;;;;2.57;1.33;;;;;;;6.10;63.32;96615.44;4859719;29;20749;-88
2022/04/18 00:52:06;;;;;;;1.93;1.47;;;;;;;6.12;62.82;96621.34;4865614;29;20618;-85
2022/04/18 00:54:34;;;;;;;1.10;1.00;;;;;;;6.06;61.67;96603.56;4888416;29;20244;-85
2022/04/18 00:57:04;;;;;;;1.10;1.00;;;;;;;5.92;61.93;96609.16;4888905;29;20202;-85
2022/04/18 00:59:33;;;;;;;1.00;0.90;;;;;;;5.84;62.38;96612.88;4890262;29;20197;-85
2022/04/18 01:02:00;;;;;;;1.17;1.10;;;;;;;5.86;63.83;96595.69;4870777;29;20227;-88
2022/04/18 01:04:29;;;;;;;1.03;0.87;;;;;;;5.77;63.33;96568.56;4878871;29;20301;-85
2022/04/18 01:06:57;;;;;;;1.03;1.03;;;;;;;5.92;62.56;96582.63;4890604;29;20205;-84
2022/04/18 01:09:25;;;;;;;0.80;0.80;;;;;;;5.85;63.07;96558.91;4875527;29;20220;-85
2022/04/18 01:11:52;;;;;;;0.90;0.90;;;;;;;6.19;63.08;96605.66;4877044;29;20279;-84
2022/04/18 01:14:30;;;;;;;1.10;1.00;;;;;;;6.13;63.11;96590.44;4879030;29;20290;-84
2022/04/18 01:17:20;;;;;;;1.07;0.90;;;;;;;6.01;62.63;96598.59;4874374;29;20203;-84
2022/04/18 01:20:15;;;;;;;1.30;1.10;;;;;;;5.46;61.69;96596.19;4877174;29;20584;-83
2022/04/18 01:23:04;;;;;;;0.97;0.97;;;;;;;5.65;63.32;96594.66;4887570;29;20245;-84
2022/04/18 01:28:59;;;;;;;1.13;1.03;;;;;;;5.77;63.22;96579.66;4888227;29;20243;-88
2022/04/18 01:31:34;;;;;;;1.20;1.10;;;;;;;5.23;62.77;96552.44;4883754;29;20219;-84
2022/04/18 01:34:06;;;;;;;0.87;0.80;;;;;;;5.31;62.98;96594.09;4891105;29;20265;-84
2022/04/18 01:36:34;;;;;;;1.00;1.00;;;;;;;5.01;63.64;96551.47;4873956;29;20214;-83
2022/04/18 01:39:05;;;;;;;1.20;1.10;;;;;;;5.19;63.49;96566.28;4880163;29;20224;-84
2022/04/18 01:41:33;;;;;;;1.47;1.20;;;;;;;5.48;63.28;96571.28;4868015;29;20207;-84
2022/04/18 01:44:01;;;;;;;1.00;1.00;;;;;;;5.72;63.67;96566.16;4882297;29;20233;-84
2022/04/18 01:46:32;;;;;;;1.03;0.90;;;;;;;5.94;62.89;96561.13;4876311;29;20273;-84
2022/04/18 01:49:00;;;;;;;1.17;1.03;;;;;;;5.92;61.37;96536.38;4876016;29;20218;-83
2022/04/18 01:51:28;;;;;;;1.60;1.10;;;;;;;5.86;62.25;96531.47;4891541;29;20219;-84
2022/04/18 01:54:00;;;;;;;1.10;1.00;;;;;;;5.73;61.86;96523.31;4864889;29;20222;-83
2022/04/18 01:56:28;;;;;;;1.83;1.10;;;;;;;5.61;61.21;96541.72;4867802;29;20241;-83
2022/04/18 01:58:56;;;;;;;1.00;1.00;;;;;;;5.54;62.00;96517.16;4867002;29;20199;-83
2022/04/18 02:01:23;;;;;;;1.37;1.00;;;;;;;5.75;62.48;96552.34;4882387;29;20225;-84
2022/04/18 02:03:51;;;;;;;2.47;1.30;;;;;;;5.75;60.54;96540.34;4859479;29;20242;-84
2022/04/18 02:06:24;;;;;;;0.83;0.83;;;;;;;5.59;61.63;96551.22;4857528;29;20217;-84
2022/04/18 02:08:51;;;;;;;0.77;0.77;;;;;;;5.54;62.50;96530.81;4889748;29;20217;-84
2022/04/18 02:11:23;;;;;;;0.80;0.80;;;;;;;5.68;63.67;96538.91;4875787;29;20200;-83
2022/04/18 02:13:56;;;;;;;0.90;0.90;;;;;;;5.60;61.11;96504.09;4880022;29;20232;-84
2022/04/18 02:16:28;;;;;;;0.60;0.60;;;;;;;5.66;61.06;96503.88;4877892;29;20644;-84
2022/04/18 02:18:58;;;;;;;1.23;0.77;;;;;;;5.79;61.61;96518.81;4862319;29;20573;-88
2022/04/18 02:21:26;;;;;;;0.60;0.60;;;;;;;5.87;61.28;96507.47;4874912;29;20719;-84
2022/04/18 02:23:53;;;;;;;0.60;0.60;;;;;;;5.92;61.87;96528.66;4874305;29;20237;-83
2022/04/18 02:26:20;;;;;;;1.23;0.80;;;;;;;5.85;61.21;96515.22;4887555;29;20188;-83
2022/04/18 02:28:58;;;;;;;2.80;0.80;;;;;;;5.87;62.67;96526.28;4876480;29;20265;-84
2022/04/18 02:31:25;;;;;;;0.80;0.80;;;;;;;5.81;62.26;96521.34;4899627;29;20208;-83
2022/04/18 02:33:54;;;;;;;1.43;1.33;;;;;;;5.84;62.24;96528.94;4885839;29;20523;-83
2022/04/18 02:36:22;;;;;;;0.90;0.90;;;;;;;5.56;62.75;96459.69;4864260;29;20222;-84
2022/04/18 02:38:50;;;;;;;1.30;0.90;;;;;;;6.04;63.88;96531.63;4891722;29;20205;-83
2022/04/18 02:41:18;;;;;;;0.83;0.80;;;;;;;6.07;62.71;96546.97;4868094;29;20254;-84
2022/04/18 02:43:45;;;;;;;0.70;0.70;;;;;;;5.97;61.94;96519.06;4900901;29;20233;-84
2022/04/18 02:46:12;;;;;;;0.73;0.73;;;;;;;5.78;62.50;96500.88;4898861;29;20182;-84
2022/04/18 02:48:44;;;;;;;0.80;0.80;;;;;;;5.92;63.22;96536.38;4911907;29;20226;-84
2022/04/18 02:51:17;;;;;;;1.53;0.70;;;;;;;5.93;61.43;96536.34;4877673;29;20282;-84
2022/04/18 02:53:47;;;;;;;1.27;1.13;;;;;;;6.00;60.87;96522.38;4898834;29;20196;-83
2022/04/18 02:56:15;;;;;;;0.70;0.70;;;;;;;6.00;61.39;96537.78;4884909;29;20244;-83
2022/04/18 02:58:48;;;;;;;0.70;0.70;;;;;;;5.95;61.98;96529.41;4916508;29;20180;-82
2022/04/18 03:01:16;;;;;;;0.80;0.70;;;;;;;5.95;61.56;96534.56;4900696;29;20194;-83
2022/04/18 03:03:46;;;;;;;0.70;0.70;;;;;;;5.82;62.04;96550.41;4900903;29;20226;-82
2022/04/18 03:06:16;;;;;;;0.83;0.70;;;;;;;5.70;62.33;96513.16;4902225;29;20208;-83
2022/04/18 03:08:43;;;;;;;0.70;0.70;;;;;;;5.66;63.14;96539.84;4904374;29;20183;-84
2022/04/18 03:11:12;;;;;;;0.70;0.70;;;;;;;5.60;63.31;96504.09;4888044;29;20187;-83
2022/04/18 03:13:46;;;;;;;1.23;0.83;;;;;;;5.84;62.79;96525.53;4902352;29;20202;-83
2022/04/18 03:16:52;;;;;;;3.70;2.50;;;;;;;5.96;62.35;96536.22;4891173;29;20198;-92
2022/04/18 03:19:24;;;;;;;3.20;1.80;;;;;;;5.97;61.92;96548.19;4900935;29;20227;-84
2022/04/18 03:22:03;;;;;;;3.97;1.27;;;;;;;6.18;61.18;96546.59;4887104;29;20217;-84
2022/04/18 03:25:05;;;;;;;0.93;0.83;;;;;;;6.08;60.45;96543.47;4917130;29;20222;-85
2022/04/18 03:27:38;;;;;;;0.70;0.70;;;;;;;5.84;59.32;96549.50;4903570;29;20211;-87
2022/04/18 03:30:06;;;;;;;0.70;0.70;;;;;;;5.56;60.20;96512.81;4866313;29;20213;-91
2022/04/18 03:33:07;;;;;;;1.17;1.07;;;;;;;5.89;58.71;96544.22;4888842;29;20208;-92
2022/04/18 03:35:36;;;;;;;3.67;0.97;;;;;;;5.97;60.32;96535.34;4906943;29;20277;-90
2022/04/18 03:41:00;;;;;;;1.93;1.30;;;;;;;5.71;61.51;96540.50;4889282;29;20606;-86
2022/04/18 03:43:28;;;;;;;1.70;0.90;;;;;;;5.72;61.94;96545.63;4878007;29;20223;-92
2022/04/18 03:45:57;;;;;;;0.60;0.60;;;;;;;5.43;60.94;96529.50;4894927;29;20302;-91
2022/04/18 03:48:26;;;;;;;0.93;0.70;;;;;;;5.73;62.22;96543.84;4885964;29;20197;-88
2022/04/18 03:50:53;;;;;;;0.90;0.80;;;;;;;5.77;61.96;96515.44;4893026;29;20224;-85
2022/04/18 03:53:21;;;;;;;1.10;0.90;;;;;;;5.88;61.68;96535.66;4899843;29;20201;-91
2022/04/18 03:55:54;;;;;;;3.23;1.30;;;;;;;5.78;61.25;96524.00;4898265;29;20628;-89
2022/04/18 03:58:45;;;;;;;9.60;2.17;;;;;;;5.99;62.76;96527.56;4895117;29;20242;-87
2022/04/18 04:04:10;;;;;;;2.43;1.60;;;;;;;5.93;61.43;96531.22;4903190;29;20257;-84
2022/04/18 04:06:51;;;;;;;3.50;1.57;;;;;;;6.05;61.24;96541.03;4904439;29;20186;-83
2022/04/18 04:09:22;;;;;;;3.40;1.80;;;;;;;6.13;62.18;96539.03;4886468;29;20277;-84
2022/04/18 04:11:51;;;;;;;5.27;2.03;;;;;;;6.19;60.95;96532.81;4887160;29;20258;-84
2022/04/18 04:14:20;;;;;;;2.43;1.30;;;;;;;6.24;59.88;96533.50;4901069;29;20208;-83
2022/04/18 04:16:54;;;;;;;0.80;0.80;;;;;;;5.89;58.90;96537.34;4889973;29;20233;-84
2022/04/18 04:19:22;;;;;;;1.37;1.00;;;;;;;5.97;59.15;96530.19;4889560;29;20186;-84
2022/04/18 04:21:52;;;;;;;3.63;1.40;;;;;;;5.79;60.89;96487.13;4890384;29;20217;-83
2022/04/18 04:24:21;;;;;;;1.50;1.10;;;;;;;6.05;59.23;96533.34;4885406;29;20726;-84
2022/04/18 04:26:52;;;;;;;4.97;1.30;;;;;;;6.09;60.81;96524.63;4889309;29;20195;-82
2022/04/18 04:29:23;;;;;;;2.23;1.33;;;;;;;6.20;61.98;96524.22;4881410;29;20199;-83
2022/04/18 04:32:01;;;;;;;7.20;2.67;;;;;;;6.19;62.31;96518.25;4886822;29;20199;-83
2022/04/18 04:34:30;;;;;;;1.30;1.20;;;;;;;5.90;59.63;96528.72;4883694;29;20194;-83
2022/04/18 04:37:17;;;;;;;5.37;1.80;;;;;;;5.97;61.33;96530.19;4883424;29;20211;-84
2022/04/18 04:39:48;;;;;;;4.97;2.13;;;;;;;6.13;59.35;96526.19;4887112;29;20246;-83
2022/04/18 04:42:20;;;;;;;2.40;1.67;;;;;;;5.67;59.21;96485.00;4886290;29;20228;-83
2022/04/18 04:44:49;;;;;;;2.67;2.00;;;;;;;5.75;59.52;96518.97;4880916;29;20230;-83
2022/04/18 04:47:22;;;;;;;10.77;2.43;;;;;;;5.96;61.38;96513.09;4881909;29;20824;-84
2022/04/18 04:49:50;;;;;;;6.63;2.87;;;;;;;6.08;61.91;96528.06;4885792;29;20201;-82
2022/04/18 04:52:31;;;;;;;4.33;1.73;;;;;;;6.11;61.74;96515.13;4897898;29;20201;-81
2022/04/18 04:54:59;;;;;;;5.27;1.50;;;;;;;6.02;61.96;96535.19;4861807;29;20314;-82
2022/04/18 04:57:41;;;;;;;2.20;1.53;;;;;;;6.20;61.09;96522.47;4875447;29;20212;-83
2022/04/18 05:00:31;;;;;;;9.13;1.83;;;;;;;6.26;60.95;96536.84;4859147;29;20297;-83
2022/04/18 05:03:12;;;;;;;2.63;1.37;;;;;;;6.25;60.26;96515.44;4878325;29;20191;-83
2022/04/18 05:05:41;;;;;;;2.23;2.00;;;;;;;6.37;60.26;96550.97;4882543;29;20226;-83
2022/04/18 05:08:28;;;;;;;0.73;0.73;;;;;;;6.02;57.85;96530.84;4889412;29;20211;-83
2022/04/18 05:10:59;;;;;;;4.93;1.30;;;;;;;5.98;59.16;96528.44;4877183;29;20205;-82
2022/04/18 05:13:43;;;;;;;1.87;1.33;;;;;;;5.79;60.16;96557.34;4862890;29;20200;-83
2022/04/18 05:16:12;;;;;;;3.03;1.90;;;;;;;5.81;60.88;96528.19;4891692;29;20689;-83
2022/04/18 05:19:16;;;;;;;5.97;2.97;;;;;;;6.18;60.57;96546.59;4868041;29;20202;-84
2022/04/18 05:21:46;;;;;;;6.33;4.43;;;;;;;6.15;61.60;96526.97;4862711;29;20207;-83
2022/04/18 05:24:20;;;;;;;3.63;1.50;;;;;;;6.24;60.08;96529.19;4859930;29;20221;-83
2022/04/18 05:26:50;;;;;;;5.37;1.70;;;;;;;6.61;60.03;96550.97;4874740;29;20249;-83
2022/04/18 05:29:22;;;;;;;1.37;1.10;;;;;;;6.48;58.69;96564.28;4875507;29;20210;-83
2022/04/18 05:31:51;;;;;;;7.83;2.23;;;;;;;6.56;58.88;96556.28;4879104;29;20218;-83
2022/04/18 05:34:22;;;;;;;3.13;1.80;;;;;;;6.55;60.35;96562.31;4878007;29;20300;-83
2022/04/18 05:36:58;;;;;;;4.70;1.43;;;;;;;6.76;59.47;96566.63;4875872;29;20631;-84
2022/04/18 05:39:56;;;;;;;1.63;1.37;;;;;;;6.65;59.56;96560.22;4869345;29;20235;-83
2022/04/18 05:42:25;;;;;;;3.07;2.20;;;;;;;6.62;60.33;96550.88;4875830;29;20202;-84
2022/04/18 05:44:58;;;;;;;2.50;1.67;;;;;;;6.82;59.56;96581.03;4878333;29;20257;-84
2022/04/18 05:47:26;;;;;;;1.97;1.80;;;;;;;6.54;59.03;96551.19;4878494;29;20204;-83
2022/04/18 05:49:53;;;;;;;8.23;2.47;;;;;;;6.59;59.87;96556.97;4876970;29;20300;-84
2022/04/18 05:52:22;;;;;;;5.27;3.00;;;;;;;6.59;58.83;96572.41;4880420;29;20710;-84
2022/04/18 05:54:58;;;;;;;4.73;1.73;;;;;;;6.55;59.28;96565.72;4884450;29;20233;-84
2022/04/18 05:57:25;;;;;;;0.60;0.60;;;;;;;6.37;56.45;96574.13;4885793;29;20195;-84
2022/04/18 05:59:55;;;;;;;4.37;1.80;;;;;;;6.22;57.58;96548.97;4883267;29;20192;-83
2022/04/18 06:02:37;;;;;;;1.67;0.97;;;;;;;6.50;56.76;96579.66;4875802;29;20229;-84
2022/04/18 06:05:16;;;;;;;3.73;2.60;;;;;;;6.54;57.66;96584.63;4861086;29;20238;-83
2022/04/18 06:08:01;;;;;;;1.27;1.10;;;;;;;6.14;57.67;96555.31;4883444;29;20198;-82
2022/04/18 06:10:49;;;;;;;8.27;3.67;;;;;;;6.31;58.75;96586.34;4886779;29;20659;-86
2022/04/18 06:13:30;;;;;;;8.90;4.53;;;;;;;6.26;58.54;96578.84;4891913;29;20230;-84
2022/04/18 06:15:59;;;;;;;7.87;1.87;;;;;;;6.48;58.71;96586.59;4880593;29;20275;-83
2022/04/18 06:18:34;;;;;;;3.10;2.80;;;;;;;6.66;59.37;96597.94;4900376;29;20220;-84
2022/04/18 06:21:06;;;;;;;3.63;1.90;;;;;;;6.69;59.28;96577.22;4874349;29;20644;-84
2022/04/18 06:23:41;;;;;;;1.47;1.20;;;;;;;6.84;58.30;96581.81;4861510;29;20210;-82
2022/04/18 06:26:47;;;;;;;1.50;1.27;;;;;;;7.11;57.22;96617.59;4845033;29;20189;-83
2022/04/18 06:29:15;;;;;;;2.30;1.40;;;;;;;7.00;56.33;96567.44;4845263;29;20625;-82
2022/04/18 06:31:49;;;;;;;1.47;0.97;;;;;;;7.01;56.04;96618.00;4836629;29;20209;-83
2022/04/18 06:34:18;;;;;;;8.60;3.57;;;;;;;6.53;56.49;96613.81;4836510;29;20589;-84
2022/04/18 06:36:50;;;;;;;7.70;4.30;;;;;;;6.13;58.23;96618.72;4837826;29;20629;-83
2022/04/18 06:39:23;;;;;;;3.20;1.83;;;;;;;5.88;57.71;96610.16;4821735;29;20198;-84
2022/04/18 06:42:01;;;;;;;1.57;0.90;;;;;;;5.68;59.35;96594.56;4839197;29;20280;-84
2022/04/18 06:44:37;;;;;;;3.13;1.50;;;;;;;5.95;59.06;96623.66;4858005;29;21012;-83
2022/04/18 06:47:05;;;;;;;3.07;1.83;;;;;;;6.17;57.31;96619.44;4862336;29;20227;-84
2022/04/18 06:49:55;;;;;;;2.43;1.90;;;;;;;5.86;58.15;96611.09;4848998;29;20298;-83
2022/04/18 06:52:54;;;;;;;2.63;1.83;;;;;;;5.49;58.33;96593.50;4876900;29;20236;-83
2022/04/18 06:58:52;;;;;;;1.63;1.10;;;;;;;5.05;59.92;96635.97;4861852;29;20228;-82
2022/04/18 07:01:26;;;;;;;1.20;1.10;;;;;;;5.17;59.32;96633.06;4866960;29;20228;-82
2022/04/18 07:04:07;;;;;;;4.57;1.43;;;;;;;5.35;60.02;96647.03;4878288;29;20706;-85
2022/04/18 07:06:38;;;;;;;7.67;3.20;;;;;;;4.92;59.39;96597.03;4878394;29;20702;-83
2022/04/18 07:09:06;;;;;;;2.33;1.27;;;;;;;5.13;59.49;96618.59;4881089;29;20612;-84
2022/04/18 07:11:45;;;;;;;1.43;1.13;;;;;;;5.24;59.07;96623.41;4879095;29;20196;-84
2022/04/18 07:14:15;;;;;;;3.17;1.80;;;;;;;5.24;58.85;96639.66;4878492;29;20195;-84
2022/04/18 07:16:47;;;;;;;12.30;5.63;;;;;;;5.43;59.32;96652.75;4879101;29;20198;-84
2022/04/18 07:19:22;;;;;;;1.20;1.10;;;;;;;5.53;58.06;96643.88;4842184;29;20671;-84
2022/04/18 07:21:53;;;;;;;1.10;1.00;;;;;;;5.00;58.00;96553.19;4864030;29;20637;-85
2022/04/18 07:24:24;;;;;;;1.50;1.10;;;;;;;5.58;57.47;96630.00;4862710;29;20240;-84
2022/04/18 07:27:00;;;;;;;2.87;1.80;;;;;;;6.05;56.85;96658.41;4893457;29;20812;-83
2022/04/18 07:29:46;;;;;;;1.30;1.20;;;;;;;5.54;56.18;96599.34;4865507;29;20201;-84
2022/04/18 07:32:15;;;;;;;1.40;1.00;;;;;;;5.39;58.36;96621.22;4850218;29;20201;-84
2022/04/18 07:34:43;;;;;;;1.40;1.20;;;;;;;5.41;57.51;96616.88;4868427;29;20291;-83
2022/04/18 07:37:22;;;;;;;1.20;1.10;;;;;;;5.69;58.09;96655.31;4882317;29;20194;-84
2022/04/18 07:39:52;;;;;;;5.33;2.67;;;;;;;5.66;58.56;96653.72;4880122;29;20276;-85
2022/04/18 07:42:20;;;;;;;5.23;3.20;;;;;;;5.89;57.78;96649.56;4862452;29;20228;-83
2022/04/18 07:44:50;;;;;;;2.00;1.57;;;;;;;5.89;58.26;96676.09;4876857;29;20342;-83
2022/04/18 07:47:19;;;;;;;5.37;2.50;;;;;;;5.94;57.53;96674.19;4878134;29;20565;-83
2022/04/18 07:49:46;;;;;;;1.20;1.10;;;;;;;5.88;57.29;96648.72;4878062;29;20258;-84
2022/04/18 07:52:22;;;;;;;1.20;0.93;;;;;;;5.76;55.85;96643.97;4892062;29;20207;-84
2022/04/18 07:55:04;;;;;;;1.37;1.17;;;;;;;5.78;56.99;96670.44;4876983;29;20712;-83
2022/04/18 07:57:37;;;;;;;1.20;1.10;;;;;;;5.75;56.88;96663.66;4875971;29;20622;-83
2022/04/18 08:00:10;;;;;;;1.27;1.10;;;;;;;5.70;56.61;96665.56;4896441;29;20297;-83
2022/04/18 08:02:41;;;;;;;1.70;1.40;;;;;;;5.92;56.75;96654.59;4881158;29;20230;-85
2022/04/18 08:05:13;;;;;;;2.03;1.50;;;;;;;5.87;56.96;96675.31;4880665;29;20909;-84
2022/04/18 08:07:56;;;;;;;2.47;1.87;;;;;;;6.04;56.03;96664.47;4881158;29;20186;-83
2022/04/18 08:10:29;;;;;;;0.90;0.90;;;;;;;6.06;55.76;96676.34;4881627;29;20285;-83
2022/04/18 08:13:00;;;;;;;1.10;1.07;;;;;;;5.93;54.18;96651.97;4878927;29;20201;-85
2022/04/18 08:15:47;;;;;;;1.10;1.00;;;;;;;6.00;54.74;96657.72;4878016;29;20202;-84
2022/04/18 08:18:36;;;;;;;1.50;1.20;;;;;;;5.94;55.85;96658.78;4880119;29;20215;-84
2022/04/18 08:21:19;;;;;;;2.00;1.50;;;;;;;5.98;55.96;96655.22;4897944;29;20210;-84
2022/04/18 08:23:51;;;;;;;2.13;1.73;;;;;;;5.83;57.00;96696.81;4883166;29;20221;-84
2022/04/18 08:26:36;;;;;;;1.87;1.67;;;;;;;5.86;56.99;96680.47;4893765;29;20221;-89
2022/04/18 08:29:24;;;;;;;1.70;1.47;;;;;;;5.95;57.44;96678.47;4899900;29;20254;-83
2022/04/18 08:32:12;;;;;;;2.10;1.90;;;;;;;6.38;58.24;96701.81;4878882;29;20606;-84
2022/04/18 08:34:40;;;;;;;1.30;1.20;;;;;;;6.22;54.58;96695.50;4878674;29;20301;-83
2022/04/18 08:37:15;;;;;;;1.30;1.20;;;;;;;5.82;54.64;96628.34;4877524;29;20201;-83
2022/04/18 08:40:15;;;;;;;6.70;2.97;;;;;;;6.34;55.48;96700.25;4857464;29;20219;-83
2022/04/18 08:42:54;;;;;;;10.03;5.27;;;;;;;6.33;55.16;96688.28;4877598;29;20231;-84
2022/04/18 08:45:28;;;;;;;2.83;1.60;;;;;;;6.57;56.51;96687.41;4878531;29;20278;-83
2022/04/18 08:53:45;;;;;;;6.30;3.77;;;;;;;6.24;56.16;96701.47;4877981;29;20213;-84
2022/04/18 08:56:13;;;;;;;7.40;3.30;;;;;;;6.12;56.89;96701.03;4878473;29;20346;-83
2022/04/18 08:58:49;;;;;;;8.33;3.87;;;;;;;6.32;56.31;96701.19;4865288;29;20579;-84
2022/04/18 09:01:23;;;;;;;2.40;1.80;;;;;;;6.52;56.99;96722.75;4879738;29;20230;-84
2022/04/18 09:04:21;;;;;;;3.83;2.73;;;;;;;6.47;54.78;96711.75;4879484;29;20269;-84
2022/04/18 09:07:06;;;;;;;1.37;1.27;;;;;;;6.39;54.82;96726.63;4892504;29;20683;-83
2022/04/18 09:10:00;;;;;;;5.47;3.93;;;;;;;6.03;56.52;96715.03;4877360;29;20211;-84
2022/04/18 09:12:29;;;;;;;8.77;4.43;;;;;;;6.25;57.63;96722.84;4861817;29;20304;-84
2022/04/18 09:15:35;;;;;;;4.60;3.20;;;;;;;6.44;57.02;96705.91;4878378;29;20223;-84
2022/04/18 09:18:23;;;;;;;4.23;2.53;;;;;;;6.56;55.23;96695.19;4848928;29;20278;-83
2022/04/18 09:21:12;;;;;;;2.47;1.87;;;;;;;6.83;55.23;96713.94;4879136;29;20207;-84
2022/04/18 09:24:00;;;;;;;2.67;1.67;;;;;;;6.70;56.88;96715.28;4881049;29;20285;-85
2022/04/18 09:26:39;;;;;;;3.67;2.10;;;;;;;6.89;55.23;96717.13;4867280;29;20225;-82
2022/04/18 09:29:13;;;;;;;2.03;1.40;;;;;;;6.83;55.56;96713.94;4878617;29;20274;-83
2022/04/18 09:31:47;;;;;;;1.60;1.50;;;;;;;6.78;56.32;96706.38;4879757;29;20197;-84
2022/04/18 09:34:25;;;;;;;1.93;1.43;;;;;;;7.01;54.06;96702.94;4879866;29;20224;-84
2022/04/18 09:37:19;;;;;;;1.30;1.20;;;;;;;6.64;55.06;96705.19;4878708;29;20257;-83
2022/04/18 09:39:54;;;;;;;1.90;1.13;;;;;;;6.29;54.97;96717.56;4859305;29;20255;-84
2022/04/18 09:42:29;;;;;;;1.83;1.30;;;;;;;6.17;56.90;96727.41;4855847;29;20217;-84
2022/04/18 09:45:03;;;;;;;1.20;1.10;;;;;;;6.18;56.05;96719.63;4860825;29;20244;-83
2022/04/18 09:47:35;;;;;;;7.70;3.60;;;;;;;6.11;56.34;96702.75;4877136;29;20305;-82
2022/04/18 09:50:58;;;;;;;6.03;1.93;;;;;;;5.96;57.11;96725.53;4879606;29;20249;-84
2022/04/18 09:53:22;;;;;;;2.77;1.70;;;;;;;5.81;56.46;96678.06;4879434;29;20201;-85
2022/04/18 09:55:53;;;;;;;8.13;3.60;;;;;;;6.13;55.68;96695.84;4880763;29;20595;-83
2022/04/18 09:58:25;;;;;;;2.13;1.60;;;;;;;5.95;55.90;96681.03;4881761;29;20234;-84
2022/04/18 10:01:16;;;;;;;2.77;1.70;;;;;;;6.12;57.55;96714.69;4881426;29;20219;-84
2022/04/18 10:03:43;;;;;;;2.30;1.70;;;;;;;6.04;56.19;96706.41;4881423;29;20196;-83
2022/04/18 10:06:15;;;;;;;2.10;1.57;;;;;;;5.98;57.29;96691.19;4880686;29;20270;-84
2022/04/18 10:09:11;;;;;;;15.13;6.00;;;;;;;6.35;56.62;96712.19;4880804;29;20238;-84
2022/04/18 10:11:46;;;;;;;5.43;3.30;;;;;;;6.56;56.21;96701.16;4883475;29;20245;-84
2022/04/18 10:14:23;;;;;;;3.83;2.40;;;;;;;6.70;54.41;96715.28;4885361;29;20269;-83
2022/04/18 10:16:53;;;;;;;7.97;3.90;;;;;;;6.46;54.17;96720.41;4888322;29;20210;-84
2022/04/18 10:19:36;;;;;;;2.03;1.40;;;;;;;6.11;54.58;96677.06;4887116;29;20206;-84
2022/04/18 10:22:59;;;;;;;2.37;1.80;;;;;;;6.59;55.18;96711.34;4887893;29;20189;-84
2022/04/18 10:26:17;;;;;;;2.20;2.00;;;;;;;6.77;54.31;96709.00;4882614;29;20238;-82
2022/04/18 10:28:48;;;;;;;4.50;3.00;;;;;;;6.89;54.98;96713.69;4843025;29;20769;-83
2022/04/18 10:31:29;;;;;;;4.07;1.97;;;;;;;6.67;55.44;96713.66;4893194;29;20221;-82
2022/04/18 10:34:10;;;;;;;3.50;2.10;;;;;;;7.07;54.90;96715.59;4880227;29;20249;-84
2022/04/18 10:37:00;;;;;;;1.60;1.50;;;;;;;6.92;54.17;96709.31;4877882;29;20212;-83
2022/04/18 10:39:36;;;;;;;1.00;1.00;;;;;;;7.24;52.76;96710.66;4877388;29;20259;-83
2022/04/18 10:42:23;;;;;;;2.47;1.97;;;;;;;7.50;54.26;96702.75;4875451;29;20567;-83
2022/04/18 10:45:11;;;;;;;2.13;1.73;;;;;;;7.74;54.43;96708.69;4875127;29;20234;-83
2022/04/18 10:48:03;;;;;;;2.37;1.50;;;;;;;7.75;53.99;96705.22;4877641;29;20248;-83
2022/04/18 10:50:43;;;;;;;1.73;1.57;;;;;;;7.72;54.33;96693.31;4874822;29;20501;-84
2022/04/18 10:53:44;;;;;;;1.53;1.43;;;;;;;7.67;52.77;96705.53;4890870;29;20676;-85
2022/04/18 10:56:15;;;;;;;1.57;1.47;;;;;;;7.32;57.17;96688.03;4877273;29;20327;-85
2022/04/18 10:58:49;;;;;;;2.90;1.40;;;;;;;7.51;58.38;96704.44;4876877;29;20200;-82
2022/04/18 11:01:20;;;;;;;8.47;2.70;;;;;;;7.31;57.70;96634.84;4875544;29;20599;-84
2022/04/18 11:03:57;;;;;;;3.23;2.53;;;;;;;7.79;57.07;96697.28;4876156;29;20274;-84
2022/04/18 11:06:38;;;;;;;2.30;1.67;;;;;;;7.88;54.55;96709.81;4864417;29;20239;-83
2022/04/18 11:09:11;;;;;;;1.53;1.40;;;;;;;7.28;54.83;96661.56;4890495;29;20462;-84
2022/04/18 11:12:01;;;;;;;1.37;1.20;;;;;;;7.23;54.37;96699.50;4860163;29;20259;-84
2022/04/18 11:14:49;;;;;;;2.60;1.50;;;;;;;6.99;56.24;96697.03;4875200;29;20188;-85
2022/04/18 11:17:37;;;;;;;1.30;1.20;;;;;;;6.80;55.14;96698.63;4860299;29;20204;-84
2022/04/18 11:20:35;;;;;;;2.93;1.23;;;;;;;6.94;55.13;96715.22;4874542;29;20586;-82
2022/04/18 11:23:28;;;;;;;2.57;1.40;;;;;;;6.91;55.23;96709.34;4876629;29;20217;-83
2022/04/18 11:26:03;;;;;;;2.73;1.87;;;;;;;6.95;55.25;96708.31;4874567;29;20924;-84
2022/04/18 11:28:36;;;;;;;2.03;1.63;;;;;;;7.32;54.81;96703.47;4876064;29;20609;-84
2022/04/18 11:31:21;;;;;;;2.67;1.83;;;;;;;7.33;55.48;96705.16;4877317;29;20218;-84
2022/04/18 11:33:49;;;;;;;1.80;1.30;;;;;;;7.05;54.24;96712.25;4880622;29;20226;-84
2022/04/18 11:36:25;;;;;;;2.93;1.67;;;;;;;7.04;54.56;96713.16;4891619;29;20630;-83
2022/04/18 11:39:12;;;;;;;1.47;1.37;;;;;;;7.17;55.14;96701.50;4878773;29;20201;-85
2022/04/18 11:41:43;;;;;;;1.70;1.40;;;;;;;7.19;54.78;96708.25;4861379;29;20206;-84
2022/04/18 11:44:45;;;;;;;2.23;1.70;;;;;;;7.10;56.48;96698.31;4878302;29;20755;-86
2022/04/18 11:47:20;;;;;;;1.60;1.50;;;;;;;7.14;54.63;96694.72;4893678;29;20238;-83
2022/04/18 11:49:58;;;;;;;1.73;1.43;;;;;;;7.24;54.09;96695.22;4877336;29;20759;-85
2022/04/18 11:53:22;;;;;;;2.43;1.80;;;;;;;7.43;53.97;96700.50;4878448;29;20210;-83
2022/04/18 11:56:43;;;;;;;1.57;1.47;;;;;;;7.49;52.94;96697.69;4875550;29;20246;-84
2022/04/18 11:59:32;;;;;;;2.13;1.90;;;;;;;7.19;55.36;96702.28;4879301;29;20227;-84
2022/04/18 12:07:46;;;;;;;1.33;1.23;;;;;;;6.38;60.77;96681.25;4877665;29;20674;-85
2022/04/18 12:10:29;;;;;;;1.77;1.30;;;;;;;6.13;61.29;96700.97;4892569;29;20247;-85
2022/04/18 12:13:13;;;;;;;4.10;1.53;;;;;;;5.76;62.05;96667.06;4879611;29;20202;-86
2022/04/18 12:15:42;;;;;;;6.97;3.70;;;;;;;5.96;61.69;96677.56;4877260;29;20270;-84
2022/04/18 12:18:15;;;;;;;0.90;0.90;;;;;;;6.10;60.25;96693.34;4879343;29;20682;-84
2022/04/18 12:20:46;;;;;;;1.73;1.60;;;;;;;6.31;60.76;96679.75;4880466;29;20251;-85
2022/04/18 12:23:21;;;;;;;3.07;2.03;;;;;;;6.82;58.75;96689.09;4895543;29;20206;-84
2022/04/18 12:25:52;;;;;;;0.80;0.80;;;;;;;7.00;57.77;96691.84;4876204;29;20263;-84
2022/04/18 12:28:23;;;;;;;0.90;0.90;;;;;;;6.97;57.13;96698.81;4877827;29;20185;-82
2022/04/18 12:30:51;;;;;;;0.80;0.80;;;;;;;7.03;56.89;96671.09;4877636;29;20202;-84
2022/04/18 12:33:22;;;;;;;1.03;1.03;;;;;;;7.31;57.24;96681.22;4879963;29;20274;-84
2022/04/18 12:36:01;;;;;;;3.53;1.60;;;;;;;7.73;57.35;96681.25;4880460;29;20229;-84
2022/04/18 12:38:41;;;;;;;5.80;1.80;;;;;;;8.03;55.56;96680.84;4880010;29;20200;-82
2022/04/18 12:41:35;;;;;;;1.20;1.10;;;;;;;7.53;53.87;96660.59;4877866;29;20283;-85
2022/04/18 12:44:11;;;;;;;3.40;1.40;;;;;;;7.59;54.29;96671.50;4878232;29;20687;-85
2022/04/18 12:46:39;;;;;;;1.77;1.67;;;;;;;7.72;51.55;96677.00;4879728;29;20263;-86